Meaux, Louisiana
Current Conditions -  °F | °C
As of 3:35 AM on Saturday 20 Dec 2014 (Local Time) from KIYA Reporting Station
Haze Haze  
Wind Chill: 42°   Ceiling: 400
Heat Index: 47°   Visibility: 5mi
Dew Point: 47°   Wind: 13mph
Humidity: 98%   Direction: 360°N
Pressure: 30.1"   Gusts: 17mph
Location:  29.8955°N, 92.208°W
Report Text: KIYA 200935Z AUTO 36011G15KT 5SM BR OVC004 09/08 A3010 RMK AO2 T00860083 TSNO
Loading
Personal Weather Stations






























Interactive Weather Map New forecast layout! Learn more

10-Day Weather Forecast

Advertisements
Track Severe Weather on mobile